sensor_id;sensor_type;location;lat;lon;timestamp;pressure;altitude;pressure_sealevel;temperature;humidity
3250;BME280;1637;42.020;23.992;2024-02-04T00:00:18;93101.88;;;-0.76;100.00
3250;BME280;1637;42.020;23.992;2024-02-04T00:02:45;93101.53;;;-0.53;100.00
3250;BME280;1637;42.020;23.992;2024-02-04T00:05:12;93093.25;;;-0.97;100.00
3250;BME280;1637;42.020;23.992;2024-02-04T00:07:38;93101.13;;;-0.97;100.00
3250;BME280;1637;42.020;23.992;2024-02-04T00:10:06;93107.41;;;-0.89;100.00
3250;BME280;1637;42.020;23.992;2024-02-04T00:12:33;93119.50;;;-0.55;100.00
3250;BME280;1637;42.020;23.992;2024-02-04T00:14:59;93110.13;;;-0.44;100.00
3250;BME280;1637;42.020;23.992;2024-02-04T00:17:28;93120.88;;;-0.70;100.00
3250;BME280;1637;42.020;23.992;2024-02-04T00:19:56;93119.47;;;-0.35;100.00
3250;BME280;1637;42.020;23.992;2024-02-04T00:22:23;93120.16;;;-0.79;100.00
3250;BME280;1637;42.020;23.992;2024-02-04T00:24:50;93119.00;;;-0.49;100.00
3250;BME280;1637;42.020;23.992;2024-02-04T00:27:17;93120.06;;;-0.17;100.00
3250;BME280;1637;42.020;23.992;2024-02-04T00:29:44;93114.84;;;-0.38;99.68
3250;BME280;1637;42.020;23.992;2024-02-04T00:32:10;93119.34;;;-0.38;99.21
3250;BME280;1637;42.020;23.992;2024-02-04T00:34:39;93125.13;;;-0.12;98.87
3250;BME280;1637;42.020;23.992;2024-02-04T00:37:05;93115.28;;;-0.03;96.67
3250;BME280;1637;42.020;23.992;2024-02-04T00:39:32;93110.13;;;-0.11;96.53
3250;BME280;1637;42.020;23.992;2024-02-04T00:41:59;93124.13;;;-0.19;96.60
3250;BME280;1637;42.020;23.992;2024-02-04T00:44:25;93119.78;;;-0.48;97.73
3250;BME280;1637;42.020;23.992;2024-02-04T00:46:52;93124.72;;;-0.67;100.00
3250;BME280;1637;42.020;23.992;2024-02-04T00:49:19;93124.09;;;-0.64;99.99
3250;BME280;1637;42.020;23.992;2024-02-04T00:51:47;93124.19;;;-0.82;100.00
3250;BME280;1637;42.020;23.992;2024-02-04T00:54:14;93122.28;;;-0.52;99.11
3250;BME280;1637;42.020;23.992;2024-02-04T00:56:40;93125.13;;;-0.24;96.85
3250;BME280;1637;42.020;23.992;2024-02-04T00:59:07;93120.94;;;-0.25;95.93
3250;BME280;1637;42.020;23.992;2024-02-04T01:01:34;93117.59;;;-0.46;96.74
3250;BME280;1637;42.020;23.992;2024-02-04T01:04:01;93112.72;;;-0.56;97.78
3250;BME280;1637;42.020;23.992;2024-02-04T01:06:28;93117.91;;;-0.48;98.92
3250;BME280;1637;42.020;23.992;2024-02-04T01:08:56;93109.25;;;-0.48;98.49
3250;BME280;1637;42.020;23.992;2024-02-04T01:11:23;93113.59;;;-0.52;98.89
3250;BME280;1637;42.020;23.992;2024-02-04T01:13:50;93112.84;;;-0.74;99.15
3250;BME280;1637;42.020;23.992;2024-02-04T01:16:17;93097.34;;;-1.08;100.00
3250;BME280;1637;42.020;23.992;2024-02-04T01:18:44;93111.78;;;-0.73;100.00
3250;BME280;1637;42.020;23.992;2024-02-04T01:21:10;93111.78;;;-0.73;98.82
3250;BME280;1637;42.020;23.992;2024-02-04T01:23:37;93109.78;;;-0.96;99.63
3250;BME280;1637;42.020;23.992;2024-02-04T01:26:05;93111.31;;;-0.95;98.67
3250;BME280;1637;42.020;23.992;2024-02-04T01:28:32;93106.53;;;-0.93;99.42
3250;BME280;1637;42.020;23.992;2024-02-04T01:30:59;93116.44;;;-1.20;100.00
3250;BME280;1637;42.020;23.992;2024-02-04T01:33:25;93110.69;;;-0.92;100.00
3250;BME280;1637;42.020;23.992;2024-02-04T01:35:52;93112.59;;;-1.01;100.00
3250;BME280;1637;42.020;23.992;2024-02-04T01:38:19;93111.59;;;-1.09;100.00
3250;BME280;1637;42.020;23.992;2024-02-04T01:40:46;93089.16;;;-1.27;100.00
3250;BME280;1637;42.020;23.992;2024-02-04T01:43:14;93105.38;;;-0.84;99.35
3250;BME280;1637;42.020;23.992;2024-02-04T01:45:41;93115.44;;;-0.86;100.00
3250;BME280;1637;42.020;23.992;2024-02-04T01:48:07;93119.28;;;-0.83;99.75
3250;BME280;1637;42.020;23.992;2024-02-04T01:50:34;93119.28;;;-1.04;100.00
3250;BME280;1637;42.020;23.992;2024-02-04T01:53:01;93128.78;;;-0.70;99.46
3250;BME280;1637;42.020;23.992;2024-02-04T01:55:28;93116.91;;;-0.97;99.71
3250;BME280;1637;42.020;23.992;2024-02-04T01:57:54;93115.53;;;-1.03;100.00
3250;BME280;1637;42.020;23.992;2024-02-04T02:00:23;93114.03;;;-1.04;100.00
3250;BME280;1637;42.020;23.992;2024-02-04T02:02:51;93108.88;;;-1.00;100.00
3250;BME280;1637;42.020;23.992;2024-02-04T02:05:19;93080.94;;;-1.26;100.00
3250;BME280;1637;42.020;23.992;2024-02-04T02:07:46;93103.91;;;-1.44;100.00
3250;BME280;1637;42.020;23.992;2024-02-04T02:10:16;93099.69;;;-1.65;100.00
3250;BME280;1637;42.020;23.992;2024-02-04T02:12:47;93136.38;;;-1.86;100.00
3250;BME280;1637;42.020;23.992;2024-02-04T02:15:16;93111.75;;;-1.64;100.00
3250;BME280;1637;42.020;23.992;2024-02-04T02:17:51;93111.34;;;-1.75;100.00
3250;BME280;1637;42.020;23.992;2024-02-04T02:20:23;93109.78;;;-1.67;100.00
3250;BME280;1637;42.020;23.992;2024-02-04T02:22:57;93104.94;;;-1.65;100.00
3250;BME280;1637;42.020;23.992;2024-02-04T02:25:31;93108.53;;;-1.70;100.00
3250;BME280;1637;42.020;23.992;2024-02-04T02:27:58;93095.16;;;-1.27;100.00
3250;BME280;1637;42.020;23.992;2024-02-04T02:30:25;93087.47;;;-1.32;100.00
3250;BME280;1637;42.020;23.992;2024-02-04T02:32:52;93089.78;;;-1.30;100.00
3250;BME280;1637;42.020;23.992;2024-02-04T02:35:19;93086.44;;;-1.40;100.00
3250;BME280;1637;42.020;23.992;2024-02-04T02:37:53;93097.06;;;-1.36;100.00
3250;BME280;1637;42.020;23.992;2024-02-04T02:40:25;93097.13;;;-1.74;100.00
3250;BME280;1637;42.020;23.992;2024-02-04T02:42:55;93103.00;;;-1.77;100.00
3250;BME280;1637;42.020;23.992;2024-02-04T02:45:23;93093.53;;;-1.40;100.00
3250;BME280;1637;42.020;23.992;2024-02-04T02:47:53;93093.78;;;-1.54;100.00
3250;BME280;1637;42.020;23.992;2024-02-04T02:50:21;93110.44;;;-1.50;100.00
3250;BME280;1637;42.020;23.992;2024-02-04T02:52:47;93091.78;;;-1.57;100.00
3250;BME280;1637;42.020;23.992;2024-02-04T02:55:14;93096.28;;;-1.66;100.00
3250;BME280;1637;42.020;23.992;2024-02-04T02:57:41;93093.53;;;-1.40;100.00
3250;BME280;1637;42.020;23.992;2024-02-04T03:00:10;93094.56;;;-1.53;100.00
3250;BME280;1637;42.020;23.992;2024-02-04T03:02:37;93099.31;;;-1.47;100.00
3250;BME280;1637;42.020;23.992;2024-02-04T03:05:05;93101.13;;;-1.18;100.00
3250;BME280;1637;42.020;23.992;2024-02-04T03:07:32;93094.91;;;-1.13;100.00
3250;BME280;1637;42.020;23.992;2024-02-04T03:09:58;93112.91;;;-1.03;100.00
3250;BME280;1637;42.020;23.992;2024-02-04T03:12:25;93105.38;;;-1.25;100.00
3250;BME280;1637;42.020;23.992;2024-02-04T03:14:52;93108.63;;;-1.28;100.00
3250;BME280;1637;42.020;23.992;2024-02-04T03:17:20;93103.56;;;-1.33;100.00
3250;BME280;1637;42.020;23.992;2024-02-04T03:19:47;93094.25;;;-1.31;100.00
3250;BME280;1637;42.020;23.992;2024-02-04T03:22:17;93104.41;;;-1.00;100.00
3250;BME280;1637;42.020;23.992;2024-02-04T03:24:43;93091.00;;;-1.07;100.00
3250;BME280;1637;42.020;23.992;2024-02-04T03:27:10;93096.50;;;-1.21;100.00
3250;BME280;1637;42.020;23.992;2024-02-04T03:29:37;93088.94;;;-1.22;100.00
3250;BME280;1637;42.020;23.992;2024-02-04T03:32:04;93061.31;;;-1.49;100.00
3250;BME280;1637;42.020;23.992;2024-02-04T03:34:32;93081.13;;;-1.10;100.00
3250;BME280;1637;42.020;23.992;2024-02-04T03:37:00;93076.56;;;-1.01;100.00
3250;BME280;1637;42.020;23.992;2024-02-04T03:39:27;93077.13;;;-0.75;100.00
3250;BME280;1637;42.020;23.992;2024-02-04T03:41:54;93071.88;;;-0.75;100.00
3250;BME280;1637;42.020;23.992;2024-02-04T03:44:20;93070.34;;;-0.96;100.00
3250;BME280;1637;42.020;23.992;2024-02-04T03:46:48;93061.56;;;-1.21;100.00
3250;BME280;1637;42.020;23.992;2024-02-04T03:49:15;93055.81;;;-1.35;100.00
3250;BME280;1637;42.020;23.992;2024-02-04T03:51:43;93060.34;;;-1.24;100.00
3250;BME280;1637;42.020;23.992;2024-02-04T03:54:10;93056.63;;;-1.23;100.00
3250;BME280;1637;42.020;23.992;2024-02-04T03:56:37;93064.97;;;-1.00;100.00
3250;BME280;1637;42.020;23.992;2024-02-04T03:59:04;93066.31;;;-1.15;100.00
3250;BME280;1637;42.020;23.992;2024-02-04T04:01:32;93070.03;;;-0.95;100.00
3250;BME280;1637;42.020;23.992;2024-02-04T04:03:58;93060.56;;;-1.08;100.00
3250;BME280;1637;42.020;23.992;2024-02-04T04:06:25;93064.41;;;-0.85;100.00
3250;BME280;1637;42.020;23.992;2024-02-04T04:08:53;93048.88;;;-0.98;100.00
3250;BME280;1637;42.020;23.992;2024-02-04T04:11:20;93050.03;;;-0.87;100.00
3250;BME280;1637;42.020;23.992;2024-02-04T04:13:48;93004.75;;;-0.93;100.00
3250;BME280;1637;42.020;23.992;2024-02-04T04:16:15;93054.84;;;-0.56;100.00
3250;BME280;1637;42.020;23.992;2024-02-04T04:18:41;93049.63;;;-0.32;100.00
3250;BME280;1637;42.020;23.992;2024-02-04T04:21:08;93055.53;;;-0.47;100.00
3250;BME280;1637;42.020;23.992;2024-02-04T04:23:35;93041.09;;;-0.74;100.00
3250;BME280;1637;42.020;23.992;2024-02-04T04:26:03;93050.22;;;-0.59;100.00
3250;BME280;1637;42.020;23.992;2024-02-04T04:28:31;93039.16;;;-0.65;100.00
3250;BME280;1637;42.020;23.992;2024-02-04T04:30:57;93038.97;;;-0.48;100.00
3250;BME280;1637;42.020;23.992;2024-02-04T04:33:24;93054.72;;;-0.60;100.00
3250;BME280;1637;42.020;23.992;2024-02-04T04:35:51;93042.72;;;-0.37;100.00
3250;BME280;1637;42.020;23.992;2024-02-04T04:38:18;93028.34;;;-0.51;100.00
3250;BME280;1637;42.020;23.992;2024-02-04T04:40:44;93044.81;;;-0.75;100.00
3250;BME280;1637;42.020;23.992;2024-02-04T04:43:13;93037.13;;;-0.47;100.00
3250;BME280;1637;42.020;23.992;2024-02-04T04:45:40;92991.69;;;-0.68;100.00
3250;BME280;1637;42.020;23.992;2024-02-04T04:48:07;93018.47;;;-0.54;100.00
3250;BME280;1637;42.020;23.992;2024-02-04T04:50:34;93022.69;;;-0.29;100.00
3250;BME280;1637;42.020;23.992;2024-02-04T04:53:01;93016.75;;;-0.26;100.00
3250;BME280;1637;42.020;23.992;2024-02-04T04:55:27;93012.34;;;-0.46;100.00
3250;BME280;1637;42.020;23.992;2024-02-04T04:57:54;93014.53;;;-0.48;100.00
3250;BME280;1637;42.020;23.992;2024-02-04T05:00:22;93015.38;;;-0.56;100.00
3250;BME280;1637;42.020;23.992;2024-02-04T05:02:49;92996.97;;;-0.56;100.00
3250;BME280;1637;42.020;23.992;2024-02-04T05:05:16;93007.69;;;-0.61;100.00
3250;BME280;1637;42.020;23.992;2024-02-04T05:07:43;93029.94;;;-0.71;100.00
3250;BME280;1637;42.020;23.992;2024-02-04T05:10:11;93029.03;;;-0.30;100.00
3250;BME280;1637;42.020;23.992;2024-02-04T05:12:39;93015.88;;;-0.42;100.00
3250;BME280;1637;42.020;23.992;2024-02-04T05:15:07;93029.13;;;-0.39;100.00
3250;BME280;1637;42.020;23.992;2024-02-04T05:17:36;93036.94;;;-0.30;100.00
3250;BME280;1637;42.020;23.992;2024-02-04T05:20:03;93031.59;;;-0.54;100.00
3250;BME280;1637;42.020;23.992;2024-02-04T05:22:30;93033.91;;;-0.53;100.00
3250;BME280;1637;42.020;23.992;2024-02-04T05:24:57;93041.50;;;-0.51;100.00
3250;BME280;1637;42.020;23.992;2024-02-04T05:27:24;93039.19;;;-0.41;100.00
3250;BME280;1637;42.020;23.992;2024-02-04T05:29:51;93036.72;;;-0.13;100.00
3250;BME280;1637;42.020;23.992;2024-02-04T05:32:18;93036.81;;;-0.33;100.00
3250;BME280;1637;42.020;23.992;2024-02-04T05:34:46;93029.84;;;-0.62;100.00
3250;BME280;1637;42.020;23.992;2024-02-04T05:37:13;93043.00;;;-0.62;100.00
3250;BME280;1637;42.020;23.992;2024-02-04T05:39:39;93050.28;;;-0.35;100.00
3250;BME280;1637;42.020;23.992;2024-02-04T05:42:06;93029.28;;;-0.23;100.00
3250;BME280;1637;42.020;23.992;2024-02-04T05:44:33;93024.28;;;-0.37;100.00
3250;BME280;1637;42.020;23.992;2024-02-04T05:47:00;93040.63;;;-0.43;100.00
3250;BME280;1637;42.020;23.992;2024-02-04T05:49:27;92993.00;;;-1.08;100.00
3250;BME280;1637;42.020;23.992;2024-02-04T05:51:55;93033.38;;;-0.79;100.00
3250;BME280;1637;42.020;23.992;2024-02-04T05:54:22;93032.97;;;-0.36;100.00
3250;BME280;1637;42.020;23.992;2024-02-04T05:56:48;93033.16;;;-0.41;100.00
3250;BME280;1637;42.020;23.992;2024-02-04T05:59:15;93030.94;;;-0.06;100.00
3250;BME280;1637;42.020;23.992;2024-02-04T06:01:42;93024.75;;;-0.35;100.00
3250;BME280;1637;42.020;23.992;2024-02-04T06:04:10;93036.50;;;-0.20;100.00
3250;BME280;1637;42.020;23.992;2024-02-04T06:06:37;93050.78;;;-0.21;100.00
3250;BME280;1637;42.020;23.992;2024-02-04T06:09:05;93052.88;;;-0.02;100.00
3250;BME280;1637;42.020;23.992;2024-02-04T06:11:33;93044.31;;;-0.11;100.00
3250;BME280;1637;42.020;23.992;2024-02-04T06:14:00;93020.69;;;-0.44;100.00
3250;BME280;1637;42.020;23.992;2024-02-04T06:16:27;93040.56;;;-0.10;100.00
3250;BME280;1637;42.020;23.992;2024-02-04T06:18:54;93039.81;;;0.02;100.00
3250;BME280;1637;42.020;23.992;2024-02-04T06:21:23;93034.22;;;0.03;100.00
3250;BME280;1637;42.020;23.992;2024-02-04T06:23:50;93026.63;;;-0.23;100.00
3250;BME280;1637;42.020;23.992;2024-02-04T06:26:18;93036.50;;;0.05;100.00
3250;BME280;1637;42.020;23.992;2024-02-04T06:28:45;93015.66;;;-0.13;100.00
3250;BME280;1637;42.020;23.992;2024-02-04T06:31:14;93001.66;;;0.20;100.00
3250;BME280;1637;42.020;23.992;2024-02-04T06:33:41;93015.56;;;0.32;100.00
3250;BME280;1637;42.020;23.992;2024-02-04T06:36:09;93027.63;;;0.21;100.00
3250;BME280;1637;42.020;23.992;2024-02-04T06:38:36;93023.38;;;3.36;100.00
3250;BME280;1637;42.020;23.992;2024-02-04T06:41:03;93023.31;;;3.33;100.00
3250;BME280;1637;42.020;23.992;2024-02-04T06:43:32;93019.81;;;2.55;91.84
3250;BME280;1637;42.020;23.992;2024-02-04T06:45:59;93039.06;;;2.36;88.53
3250;BME280;1637;42.020;23.992;2024-02-04T06:48:25;93038.69;;;1.59;89.96
3250;BME280;1637;42.020;23.992;2024-02-04T06:50:52;93038.94;;;0.98;94.08
3250;BME280;1637;42.020;23.992;2024-02-04T06:53:19;93013.78;;;0.49;97.72
3250;BME280;1637;42.020;23.992;2024-02-04T06:55:46;93046.72;;;0.55;100.00
3250;BME280;1637;42.020;23.992;2024-02-04T06:58:12;93045.06;;;0.50;100.00
3250;BME280;1637;42.020;23.992;2024-02-04T07:00:41;93035.09;;;0.31;100.00
3250;BME280;1637;42.020;23.992;2024-02-04T07:03:07;93049.25;;;0.15;100.00
3250;BME280;1637;42.020;23.992;2024-02-04T07:05:35;93075.59;;;0.51;100.00
3250;BME280;1637;42.020;23.992;2024-02-04T07:08:02;93063.50;;;0.50;100.00
3250;BME280;1637;42.020;23.992;2024-02-04T07:10:29;93086.56;;;0.53;100.00
3250;BME280;1637;42.020;23.992;2024-02-04T07:12:56;93093.28;;;0.51;100.00
3250;BME280;1637;42.020;23.992;2024-02-04T07:15:22;93043.97;;;0.27;100.00
3250;BME280;1637;42.020;23.992;2024-02-04T07:17:51;93090.72;;;0.42;100.00
3250;BME280;1637;42.020;23.992;2024-02-04T07:20:18;93084.03;;;0.69;100.00
3250;BME280;1637;42.020;23.992;2024-02-04T07:22:45;93083.44;;;0.88;100.00
3250;BME280;1637;42.020;23.992;2024-02-04T07:25:12;93062.34;;;0.88;100.00
3250;BME280;1637;42.020;23.992;2024-02-04T07:27:39;93067.44;;;0.81;100.00
3250;BME280;1637;42.020;23.992;2024-02-04T07:30:07;93092.66;;;0.94;100.00
3250;BME280;1637;42.020;23.992;2024-02-04T07:32:36;93014.28;;;0.79;100.00
3250;BME280;1637;42.020;23.992;2024-02-04T07:35:05;93073.81;;;1.20;100.00
3250;BME280;1637;42.020;23.992;2024-02-04T07:37:34;93070.66;;;1.42;100.00
3250;BME280;1637;42.020;23.992;2024-02-04T07:40:01;93073.38;;;1.18;100.00
3250;BME280;1637;42.020;23.992;2024-02-04T07:42:30;93044.31;;;1.02;100.00
3250;BME280;1637;42.020;23.992;2024-02-04T07:44:57;93075.78;;;1.23;100.00
3250;BME280;1637;42.020;23.992;2024-02-04T07:47:24;93073.69;;;1.72;100.00
3250;BME280;1637;42.020;23.992;2024-02-04T07:49:51;93051.41;;;1.85;98.26
3250;BME280;1637;42.020;23.992;2024-02-04T07:52:19;93063.09;;;1.84;98.40
3250;BME280;1637;42.020;23.992;2024-02-04T07:54:46;93055.25;;;2.03;97.61
3250;BME280;1637;42.020;23.992;2024-02-04T07:57:13;93065.06;;;2.19;97.04
3250;BME280;1637;42.020;23.992;2024-02-04T07:59:39;93045.19;;;2.09;95.10
3250;BME280;1637;42.020;23.992;2024-02-04T08:02:06;93044.00;;;2.38;94.72
3250;BME280;1637;42.020;23.992;2024-02-04T08:04:33;93042.72;;;2.00;95.77
3250;BME280;1637;42.020;23.992;2024-02-04T08:07:00;93068.72;;;2.14;97.17
3250;BME280;1637;42.020;23.992;2024-02-04T08:09:28;93054.81;;;2.33;95.71
3250;BME280;1637;42.020;23.992;2024-02-04T08:11:57;93050.16;;;2.26;94.84
3250;BME280;1637;42.020;23.992;2024-02-04T08:14:25;93053.72;;;2.34;94.92
3250;BME280;1637;42.020;23.992;2024-02-04T08:16:52;93059.56;;;2.59;94.53
3250;BME280;1637;42.020;23.992;2024-02-04T08:19:19;93030.16;;;2.60;92.36
3250;BME280;1637;42.020;23.992;2024-02-04T08:21:45;93040.16;;;2.20;95.91
3250;BME280;1637;42.020;23.992;2024-02-04T08:24:12;93040.53;;;2.69;94.96
3250;BME280;1637;42.020;23.992;2024-02-04T08:26:41;93037.16;;;2.88;93.55
3250;BME280;1637;42.020;23.992;2024-02-04T08:29:07;93048.19;;;3.09;92.10
3250;BME280;1637;42.020;23.992;2024-02-04T08:31:34;93053.16;;;2.95;91.76
3250;BME280;1637;42.020;23.992;2024-02-04T08:34:01;93043.59;;;2.71;92.47
3250;BME280;1637;42.020;23.992;2024-02-04T08:36:29;93038.06;;;2.60;94.18
3250;BME280;1637;42.020;23.992;2024-02-04T08:38:56;93041.69;;;2.87;95.62
3250;BME280;1637;42.020;23.992;2024-02-04T08:41:23;93054.69;;;3.31;92.34
3250;BME280;1637;42.020;23.992;2024-02-04T08:43:51;93050.25;;;3.58;90.93
3250;BME280;1637;42.020;23.992;2024-02-04T08:46:18;93048.56;;;3.88;88.95
3250;BME280;1637;42.020;23.992;2024-02-04T08:48:44;93033.28;;;3.20;90.37
3250;BME280;1637;42.020;23.992;2024-02-04T08:51:11;93028.19;;;3.50;91.78
3250;BME280;1637;42.020;23.992;2024-02-04T08:53:39;93050.09;;;3.89;89.33
3250;BME280;1637;42.020;23.992;2024-02-04T08:56:06;93056.28;;;3.77;89.36
3250;BME280;1637;42.020;23.992;2024-02-04T08:58:33;93051.91;;;3.85;88.71
3250;BME280;1637;42.020;23.992;2024-02-04T09:01:04;93050.47;;;3.68;89.91
3250;BME280;1637;42.020;23.992;2024-02-04T09:03:31;93043.50;;;4.02;88.51
3250;BME280;1637;42.020;23.992;2024-02-04T09:05:58;93032.69;;;3.69;88.69
3250;BME280;1637;42.020;23.992;2024-02-04T09:08:25;93025.81;;;3.64;89.74
3250;BME280;1637;42.020;23.992;2024-02-04T09:10:51;93030.09;;;4.41;91.07
3250;BME280;1637;42.020;23.992;2024-02-04T09:13:18;93040.72;;;4.94;85.40
3250;BME280;1637;42.020;23.992;2024-02-04T09:15:45;93045.97;;;5.20;83.91
3250;BME280;1637;42.020;23.992;2024-02-04T09:18:14;93015.53;;;5.10;81.44
3250;BME280;1637;42.020;23.992;2024-02-04T09:20:41;93007.94;;;4.53;86.32
3250;BME280;1637;42.020;23.992;2024-02-04T09:23:07;93033.72;;;5.08;83.84
3250;BME280;1637;42.020;23.992;2024-02-04T09:25:34;93027.81;;;5.22;83.70
3250;BME280;1637;42.020;23.992;2024-02-04T09:28:01;92985.88;;;5.05;83.66
3250;BME280;1637;42.020;23.992;2024-02-04T09:30:28;92982.91;;;5.43;83.11
3250;BME280;1637;42.020;23.992;2024-02-04T09:32:54;92992.94;;;5.57;83.61
3250;BME280;1637;42.020;23.992;2024-02-04T09:35:23;92984.78;;;6.17;81.72
3250;BME280;1637;42.020;23.992;2024-02-04T09:37:50;92996.75;;;6.41;79.96
3250;BME280;1637;42.020;23.992;2024-02-04T09:40:17;92997.50;;;6.41;79.34
3250;BME280;1637;42.020;23.992;2024-02-04T09:42:44;92988.03;;;7.06;77.51
3250;BME280;1637;42.020;23.992;2024-02-04T09:45:14;93001.63;;;7.87;74.49
3250;BME280;1637;42.020;23.992;2024-02-04T09:47:42;92996.38;;;8.41;71.54
3250;BME280;1637;42.020;23.992;2024-02-04T09:50:10;92967.78;;;8.52;70.15
3250;BME280;1637;42.020;23.992;2024-02-04T09:52:40;93002.03;;;8.04;72.31
3250;BME280;1637;42.020;23.992;2024-02-04T09:55:07;93000.50;;;8.17;71.58
3250;BME280;1637;42.020;23.992;2024-02-04T09:57:36;93001.25;;;9.03;68.96
3250;BME280;1637;42.020;23.992;2024-02-04T10:00:03;92959.97;;;9.25;67.71
3250;BME280;1637;42.020;23.992;2024-02-04T10:02:32;92996.19;;;10.13;64.81
3250;BME280;1637;42.020;23.992;2024-02-04T10:04:59;92980.88;;;9.44;65.47
3250;BME280;1637;42.020;23.992;2024-02-04T10:07:25;92988.69;;;8.92;68.50
3250;BME280;1637;42.020;23.992;2024-02-04T10:09:54;92991.34;;;8.96;69.34
3250;BME280;1637;42.020;23.992;2024-02-04T10:12:21;92997.44;;;8.96;69.32
3250;BME280;1637;42.020;23.992;2024-02-04T10:14:51;92989.47;;;8.86;68.97
3250;BME280;1637;42.020;23.992;2024-02-04T10:17:18;92993.66;;;8.87;69.90
3250;BME280;1637;42.020;23.992;2024-02-04T10:19:46;93002.47;;;8.34;71.67
3250;BME280;1637;42.020;23.992;2024-02-04T10:22:13;93006.63;;;8.10;72.82
3250;BME280;1637;42.020;23.992;2024-02-04T10:24:42;93005.13;;;8.27;73.39
3250;BME280;1637;42.020;23.992;2024-02-04T10:27:11;92994.03;;;8.18;73.36
3250;BME280;1637;42.020;23.992;2024-02-04T10:29:38;93015.72;;;7.95;74.02
3250;BME280;1637;42.020;23.992;2024-02-04T10:32:06;92989.84;;;8.06;74.03
3250;BME280;1637;42.020;23.992;2024-02-04T10:34:36;92997.91;;;8.45;72.26
3250;BME280;1637;42.020;23.992;2024-02-04T10:37:03;92981.41;;;9.11;70.10
3250;BME280;1637;42.020;23.992;2024-02-04T10:39:30;93010.41;;;9.09;70.97
3250;BME280;1637;42.020;23.992;2024-02-04T10:42:02;92976.44;;;9.06;69.84
3250;BME280;1637;42.020;23.992;2024-02-04T10:44:35;92995.03;;;9.41;70.70
3250;BME280;1637;42.020;23.992;2024-02-04T10:47:05;92991.56;;;9.51;68.22
3250;BME280;1637;42.020;23.992;2024-02-04T10:49:33;92973.53;;;9.70;68.46
3250;BME280;1637;42.020;23.992;2024-02-04T10:52:04;92988.25;;;9.99;66.79
3250;BME280;1637;42.020;23.992;2024-02-04T10:54:33;92988.22;;;10.06;67.42
3250;BME280;1637;42.020;23.992;2024-02-04T10:57:04;92998.50;;;10.11;66.29
3250;BME280;1637;42.020;23.992;2024-02-04T10:59:34;92997.69;;;10.21;65.32
3250;BME280;1637;42.020;23.992;2024-02-04T11:02:01;92991.53;;;10.31;65.15
3250;BME280;1637;42.020;23.992;2024-02-04T11:04:28;92999.75;;;10.55;64.03
3250;BME280;1637;42.020;23.992;2024-02-04T11:06:55;93008.03;;;10.71;63.44
3250;BME280;1637;42.020;23.992;2024-02-04T11:09:23;92996.44;;;10.81;62.88
3250;BME280;1637;42.020;23.992;2024-02-04T11:11:51;92991.09;;;10.81;64.67
3250;BME280;1637;42.020;23.992;2024-02-04T11:14:20;92993.31;;;10.90;64.62
3250;BME280;1637;42.020;23.992;2024-02-04T11:17:07;92990.81;;;10.72;64.45
3250;BME280;1637;42.020;23.992;2024-02-04T11:19:48;92967.66;;;10.48;63.20
3250;BME280;1637;42.020;23.992;2024-02-04T11:22:35;92986.22;;;10.73;63.78
3250;BME280;1637;42.020;23.992;2024-02-04T11:25:21;92980.25;;;10.54;64.70
3250;BME280;1637;42.020;23.992;2024-02-04T11:27:54;92981.44;;;10.50;64.58
3250;BME280;1637;42.020;23.992;2024-02-04T11:30:21;92983.38;;;10.46;63.67
3250;BME280;1637;42.020;23.992;2024-02-04T11:32:50;92976.81;;;10.54;63.31
3250;BME280;1637;42.020;23.992;2024-02-04T11:35:17;92983.19;;;10.67;62.66
3250;BME280;1637;42.020;23.992;2024-02-04T11:37:46;92938.31;;;10.37;63.13
3250;BME280;1637;42.020;23.992;2024-02-04T11:40:14;92966.75;;;10.65;63.27
3250;BME280;1637;42.020;23.992;2024-02-04T11:42:42;92964.81;;;10.69;62.73
3250;BME280;1637;42.020;23.992;2024-02-04T11:45:11;92949.41;;;10.80;61.90
3250;BME280;1637;42.020;23.992;2024-02-04T11:47:40;92960.91;;;10.77;62.78
3250;BME280;1637;42.020;23.992;2024-02-04T11:50:09;92974.13;;;10.54;63.76
3250;BME280;1637;42.020;23.992;2024-02-04T11:52:36;92953.06;;;10.56;63.91
3250;BME280;1637;42.020;23.992;2024-02-04T11:55:03;92972.09;;;10.65;63.47
3250;BME280;1637;42.020;23.992;2024-02-04T11:57:32;92969.66;;;10.81;62.98
3250;BME280;1637;42.020;23.992;2024-02-04T12:00:00;92950.56;;;10.79;61.36
3250;BME280;1637;42.020;23.992;2024-02-04T12:02:27;92940.66;;;10.76;61.70
3250;BME280;1637;42.020;23.992;2024-02-04T12:04:54;92971.31;;;11.09;60.90
3250;BME280;1637;42.020;23.992;2024-02-04T12:07:23;92962.03;;;11.17;60.88
3250;BME280;1637;42.020;23.992;2024-02-04T12:09:50;92962.84;;;11.14;60.40
3250;BME280;1637;42.020;23.992;2024-02-04T12:12:17;92962.06;;;11.14;61.19
3250;BME280;1637;42.020;23.992;2024-02-04T12:14:45;92952.06;;;11.18;60.23
3250;BME280;1637;42.020;23.992;2024-02-04T12:17:12;92944.91;;;11.08;61.66
3250;BME280;1637;42.020;23.992;2024-02-04T12:19:39;92961.66;;;11.19;61.66
3250;BME280;1637;42.020;23.992;2024-02-04T12:22:06;92946.25;;;11.23;60.42
3250;BME280;1637;42.020;23.992;2024-02-04T12:24:36;92982.94;;;11.33;61.20
3250;BME280;1637;42.020;23.992;2024-02-04T12:27:04;92971.84;;;10.93;61.69
3250;BME280;1637;42.020;23.992;2024-02-04T12:29:32;92971.47;;;10.95;61.95
3250;BME280;1637;42.020;23.992;2024-02-04T12:31:59;92966.63;;;11.17;61.19
3250;BME280;1637;42.020;23.992;2024-02-04T12:34:26;92991.53;;;11.17;60.79
3250;BME280;1637;42.020;23.992;2024-02-04T12:36:57;92945.41;;;11.29;59.10
3250;BME280;1637;42.020;23.992;2024-02-04T12:39:24;92931.63;;;11.31;59.13
3250;BME280;1637;42.020;23.992;2024-02-04T12:41:53;92940.09;;;10.92;62.90
3250;BME280;1637;42.020;23.992;2024-02-04T12:44:19;92937.97;;;10.76;62.81
3250;BME280;1637;42.020;23.992;2024-02-04T12:46:50;92935.25;;;10.80;61.53
3250;BME280;1637;42.020;23.992;2024-02-04T12:49:19;92940.50;;;10.90;59.77
3250;BME280;1637;42.020;23.992;2024-02-04T12:51:46;92951.00;;;11.12;59.64
3250;BME280;1637;42.020;23.992;2024-02-04T12:54:13;92938.16;;;10.96;60.98
3250;BME280;1637;42.020;23.992;2024-02-04T12:56:45;92929.72;;;10.97;59.13
3250;BME280;1637;42.020;23.992;2024-02-04T12:59:24;92940.44;;;11.62;57.37
3250;BME280;1637;42.020;23.992;2024-02-04T13:01:54;92956.34;;;11.80;58.04
3250;BME280;1637;42.020;23.992;2024-02-04T13:04:21;92958.91;;;11.56;58.77
3250;BME280;1637;42.020;23.992;2024-02-04T13:06:48;92933.31;;;11.48;58.63
3250;BME280;1637;42.020;23.992;2024-02-04T13:09:15;92955.63;;;12.02;58.21
3250;BME280;1637;42.020;23.992;2024-02-04T13:11:42;92963.53;;;12.13;57.63